Aeroporto :
LOGIN :

Iscrizione | Disclaimer

   EN    FR    IT 

 










Sommario :    VFR   VFR Marginale   IFR   IFR Intensivo   IFR Molto Intensivo
Visibilità : 
Base nubi : 
>= 8 km
>= 3000ft
5 / 8 km
1000 / 3000 ft
1500m / 5 km
500 / 1000 ft
800 / 1500m
200 / 500 ft
< 800m
< 200 ft
Simboli :   Temporali  Nebbia  Neve Forte  Precipitazioni Forti  Vento > 20 kt
SIGMETs :   Varie  Temporali  Ghiacco  Turbolenza  Onda orograficha  Ceneri Vulcaniche






- Altitudine del aeroporto : 90 ft
- Codice IATA : NTE


LFRS - Nantes

ULTIMO METAR :
  • 230130Z AUTO 14005KT 9999 ///TCU 10/09 Q0984

METARs OBSOLETI :
  • 230100Z AUTO 14008KT CAVOK 10/09 Q0983 TEMPO 4000 -RA BKN007 BKN015CB
  • 230030Z AUTO 13010KT CAVOK 10/09 Q0983 TEMPO 4000 -RA BKN007 BKN015CB
  • 230000Z AUTO 15010KT 9999 FEW010 OVC064 11/10 Q0983 TEMPO 4000 -RA BKN007 BKN015CB
  • 222330Z AUTO 14011KT 9999 FEW010/// OVC064/// ///CB 11/10 Q0983 TEMPO 4000 -RA BKN007 BKN015CB
  • 222300Z AUTO 14013KT 9999 FEW027/// SCT070/// BKN094/// ///CB 11/09 Q0983 TEMPO 2000 SHRA BKN007 BKN015CB

TAF TAF LFRS
Valido dal 23 a 00 ore il 24 a 06 ore UTC


222300Z 2300/2406 15010KT 9999 BKN030 BKN050
TEMPO 2300/2303 4000 -RA BKN007 BKN015CB
TEMPO 2309/2318 4000 -RA BKN005 SCT030TCU
BECMG 2312/2314 29010KT
BECMG 2401/2403 3000 BR BKN010
ATIS : +33 2 40 05 12 74



MetMap, La meteo Aeronautica in un colpo d'occhio ! - Copyright ORBIFLY Dicembre 2007 - Disclaimer

ORBIFLY MET'MAP TEAM :

Programmazione e sviluppo : Alexandra Zaïnal
Concezione e sviluppo : Baudouin d'Aumeries
Co-Programmazione e sviluppo : Marc-Olivier Méhu
Supporto tecnico e logistico : Manuel Goepfert
Aiuto per la traduzione : Arnaldo La Scala

Contatto : metmap@orbifly.com




FONTI E CREDITI :

   NOAA